Regionale Übersicht

METAR et TAF

Vendredi 22 février 2019 à 07h15

Visibilités horizontales observées à différents aéroports. Les observations (METAR) et prévisions aéronautiques (TAF) complètes sont disponibles en cliquant sur l’icône correspondante.

  • Luxemburg (ELLX)

    Taf: TAF ELLX 220500Z 2206/2312 32005KT 7000 BKN020 TEMPO 2207/2215 2000 -DZ BR BKN005 PROB40 TEMPO 2208/2214 0200 FG DZ BKN001 BECMG 2213/2215 09008KT PROB30 TEMPO 2300/2306 0800 FG VV003=

    Metar: METAR ELLX 220550Z 34003KT 290V020 9000 SCT014 BKN037 08/06 Q1033 NOSIG=

  • Spangdahlem (ETAD)

    Taf: TAF ETAD 220500Z 2205/2311 26007KT 9999 OVC010 QNH3045INS BECMG 2205/2206 34006KT 3200 BR OVC010 QNH3045INS BECMG 2209/2210 02009KT 9000 BR OVC010 QNH3055INS BECMG 2211/2212 04010G15KT 9999 NSW OVC007 QNH3058INS BECMG 2218/2219 08006KT 5000 BR BKN005 QNH3060INS BECMG 2306/2307 08006KT 9999 NSW SCT010 QNH3055INS TX11/2213Z TN05/2205Z=

    Metar: nil

  • Metz/Nancy (LFJL)

    Taf: TAF LFJL 220500Z 2206/2306 VRB03KT 8000 BKN025 TEMPO 2206/2208 4000 BR BECMG 2213/2215 04008KT TEMPO 2213/2216 BKN010 BECMG 2220/2222 4000 BR BECMG 2300/2303 BKN005=

    Metar: nil

  • Saarbrücken/Intl (EDDR)

    Taf: TAF EDDR 220500Z 2206/2306 28004KT 9999 SCT010 BKN025 PROB30 TEMPO 2206/2210 2000 -DZ BR OVC008 BECMG 2209/2212 36005KT BECMG 2214/2217 06008KT PROB40 TEMPO 2302/2306 BKN010=

    Metar: nil

  • Hahn (EDFH)

    Taf: TAF EDFH 220500Z 2206/2306 31006KT 9999 SCT005 BKN015 TEMPO 2206/2210 2500 -DZ OVC003 PROB30 TEMPO 2206/2209 0800 -DZ FG VV001 BECMG 2209/2213 02007KT PROB30 TEMPO 2210/2214 BKN005 BECMG 2215/2218 09009KT BECMG 2222/2301 SCT007 BKN010 TEMPO 2301/2306 3000 BR BKN005=

    Metar: nil

  • Ramstein (ETAR)

    Taf: TAF ETAR 220204Z 2202/2308 29006KT 8000 BR BKN024 BKN050 QNH3042INS BECMG 2208/2209 33009KT 9999 NSW BKN020 BKN040 QNH3052INS BECMG 2214/2215 03009KT 9999 SCT030 BKN045 QNH3053INS BECMG 2219/2220 03006KT 8000 BR SCT040 QNH3058INS BECMG 2302/2303 03006KT 9999 NSW FEW040 QNH3061INS TX12/2214Z TN03/2302Z=

    Metar: nil

  • Nancy/Ochey (LFSO)

    Taf: TAF LFSO 220200Z NIL=

    Metar: nil

  • Liège Bierset (EBLG)

    Taf: TAF EBLG 220500Z 2206/2312 01003KT 2500 BR BKN004 PROB40 TEMPO 2206/2210 0300 FG -DZ BKN001 BECMG 2211/2213 3500 BR SCT004 BKN007 BECMG 2213/2215 7000 NSW SCT010 BKN020 PROB30 TEMPO 2305/2308 4500 BR MIFG=

    Metar: nil

  • Saint-Dizier (LFSI)

    Taf: TAF AMD LFSI 220503Z 2205/2303 VRB02KT 3000 BR NSC BECMG 2206/2208 9999 NSW BECMG 2210/2212 04010KT BKN015 BKN025=

    Metar: nil

  • Maastricht/Zuid Limburg (EHBK)

    Taf: TAF EHBK 220517Z 2206/2312 27005KT 2000 BR BKN006 PROB40 2206/2211 0400 FG VV001 BECMG 2209/2212 4000 BECMG 2213/2216 9000 NSW BKN020=

    Metar: nil

  • Köln/Köln-Bonn (EDDK)

    Taf: TAF EDDK 220500Z 2206/2312 33005KT 3000 BR SCT003 BKN012 TEMPO 2206/2208 34010KT 2000 -DZ BR BKN004 PROB30 TEMPO 2206/2208 0600 DZ BKN001 BECMG 2208/2212 05005KT 9999 BKN030 BECMG 2218/2221 12007KT=

    Metar: METAR EDDK 220550Z 32005KT 3100 -DZ BR SCT002 BKN003 09/08 Q1033 NOSIG=

  • Charleroi (EBCI)

    Taf: TAF EBCI 220500Z 2206/2312 02003KT 2500 BR BKN003 TEMPO 2206/2210 0200 FG BKN001 BECMG 2210/2212 3500 SCT003 BKN006 PROB30 TEMPO 2210/2214 2000 -DZ BKN003 BECMG 2214/2216 6000 NSW FEW010 BKN018 PROB30 TEMPO 2305/2308 4000 BR MIFG=

    Metar: nil

  • Wiesbaden (ETOU)

    Taf: TAF ETOU 212001Z 2120/2302 27006KT 9999 SCT040 OVC060 QNH3037INS BECMG 2200/2201 VRB06KT 8000 BR BKN015 OVC025 QNH3041INS TEMPO 2201/2205 BKN010 BECMG 2209/2210 VRB06KT 9999 NSW SCT015 BKN030 QNH3050INS BECMG 2223/2224 07006KT 9999 SCT030 QNH3068INS TX12/2214Z TN04/2205Z=

    Metar: nil

  • Karlsruhe/Baden-Baden (EDSB)

    Taf: TAF EDSB 220500Z 2206/2306 23004KT 9999 SCT020 BKN035 BECMG 2211/2214 04007KT=

    Metar: nil

  • Chalons/Vatry (LFOK)

    Taf: TAF LFOK 220500Z 2206/2306 VRB02KT 2000 BR NSC PROB40 2206/2209 0400 FG VV/// BECMG 2209/2211 8000 NSW BECMG 2213/2215 06010KT PROB30 TEMPO 2302/2306 4000 BR=

    Metar: nil

  • Brüssel (EBBR)

    Taf: TAF EBBR 220500Z 2206/2312 32003KT 2000 BR BKN003 TEMPO 2206/2210 0300 FG BKN001 BECMG 2210/2213 3500 SCT004 BKN006 PROB30 TEMPO 2210/2215 2500 -DZ BKN004 BECMG 2216/2218 6000 NSW SCT012 BKN020 PROB30 TEMPO 2306/2308 4500 BR MIFG=

    Metar: METAR EBBR 220550Z VRB02KT 0200 R25L/0550N R25R/0600N R01/0450N FG BKN001 06/06 Q1034 NOSIG=

  • Düsseldorf (EDDL)

    Taf: TAF EDDL 220500Z 2206/2312 33005KT 4000 BR SCT003 BKN012 TEMPO 2206/2208 35010KT 2000 -DZ BR BKN003 PROB30 TEMPO 2206/2208 0800 DZ BKN001 BECMG 2208/2211 05005KT 9999 SCT030 BECMG 2300/2303 14007KT=

    Metar: nil

  • Luxeuil (LFSX)

    Taf: TAF AMD LFSX 220530Z 2205/2303 VRB03KT CAVOK TEMPO 2300/2303 2000 BR PROB30 TEMPO 2301/2303 0500 FG=

    Metar: nil

  • Eindhoven (EHEH)

    Taf: TAF EHEH 212320Z 2200/2306 30005KT 9000 BKN015 BECMG 2205/2208 4000 BR SCT003 BKN005 PROB30 2205/2208 VRB02KT 0600 FG OVC001 BECMG 2208/2211 07005KT 8000 NSW SCT015 BECMG 2212/2215 SCT020=

    Metar: nil

  • Niederrhein (EDLV)

    Taf: TAF EDLV 220500Z 2206/2306 VRB03KT 4000 BR SCT003 BKN008 TEMPO 2206/2208 1200 -DZ BR BKN002 BECMG 2208/2211 6000 SCT035 BECMG 2300/2303 12005KT=

    Metar: nil

  • Dortmund/Wickede (EDLW)

    Taf: TAF EDLW 220500Z 2206/2306 33004KT 2500 BR SCT004 OVC006 TEMPO 2206/2208 1000 -DZ BR BKN001 PROB30 TEMPO 2206/2208 0500 DZ FG BECMG 2208/2210 4000 BR BKN011 BECMG 2212/2215 06007KT 9000 SCT040 BECMG 2219/2221 12006KT=

    Metar: nil

  • Stuttgart/Echterdingen (EDDS)

    Taf: TAF EDDS 220500Z 2206/2306 27006KT 9999 SCT010 BKN025 PROB30 TEMPO 2206/2210 4500 -DZ BR BKN012 BECMG 2207/2211 35006KT BECMG 2216/2219 06006KT=

    Metar: METAR EDDS 220550Z 28005KT 3000 -DZ FEW005 SCT007 BKN010 08/07 Q1031 TEMPO 2500 DZ BKN007=

  • Basel-Mühlhausen (LFSB)

    Taf: TAF LFSB 220500Z 2206/2306 VRB02KT 9999 BKN040 BECMG 2211/2213 36010KT BECMG 2222/2224 30003KT 3000 BR NSC TEMPO 2300/2306 0300 FG OVC003=

    Metar: METAR LFSB 220600Z VRB02KT 9999 OVC043 04/02 Q1032 NOSIG=

  • Lille (LFQQ)

    Taf: TAF LFQQ 220500Z 2206/2312 VRB03KT 0600 FG VV/// TEMPO 2206/2209 0200 FG BECMG 2209/2212 3000 BR OVC003 BECMG 2212/2215 9999 NSW SCT012 BECMG 2221/2224 3000 BR BECMG 2300/2304 0300 FG VV/// BECMG 2308/2310 12010KT CAVOK=

    Metar: nil

  • Paris/Charles de Gaulle (LFPG)

    Taf: TAF LFPG 220500Z 2206/2312 04003KT 3000 BR SCT008 TX15/2215Z TN03/2206Z TEMPO 2206/2210 0500 BCFG BKN008 PROB30 TEMPO 2206/2209 0200 FG VV/// BECMG 2211/2213 09006KT CAVOK PROB40 TEMPO 2223/2309 4000 BR PROB30 TEMPO 2306/2308 0800 BCFG=

    Metar: nil

  • Paderborn/Lippstadt (EDLP)

    Taf: TAF EDLP 220500Z 2206/2306 31006KT 2000 BR SCT002 BKN008 TEMPO 2206/2210 1200 -DZ BR OVC001 PROB40 TEMPO 2206/2208 0400 DZ FG BECMG 2208/2211 07005KT BECMG 2210/2213 BKN013 BECMG 2213/2216 9999 BKN035 BECMG 2218/2221 14008KT=

    Metar: nil

  • Paris/Le Bourget (LFPB)

    Taf: TAF LFPB 220500Z 2206/2306 04003KT 3000 BR SCT010 TEMPO 2206/2210 0800 BCFG BKN010 PROB30 TEMPO 2206/2209 0200 FG BKN002 BECMG 2211/2213 09006KT CAVOK PROB40 TEMPO 2223/2306 4000 BR=

    Metar: METAR LFPB 220600Z AUTO 01003KT 3300 BR NSC 02/02 Q1034 TEMPO 0200 FG BKN002=

  • Rotterdam (EHRD)

    Taf: TAF EHRD 220518Z 2206/2312 VRB03KT 2000 BR BKN002 PROB40 2206/2209 1400 BKN001 BECMG 2208/2211 5000 SCT004 BKN016 BECMG 2211/2213 10005KT 8000 NSW BKN020 BECMG 2221/2224 6000 NSC BECMG 2307/2310 13010KT CAVOK=

    Metar: nil

  • Zürich/Kloten (LSZH)

    Taf: TAF LSZH 220525Z 2206/2312 VRB03KT 9999 BKN040 TX12/2214Z TN04/2206Z TN02/2306Z BECMG 2211/2214 05006KT PROB30 2302/2310 BKN010 BECMG 2309/2312 04012KT=

    Metar: METAR LSZH 220550Z VRB02KT 9999 SCT042 BKN046 05/04 Q1032 NOSIG=

  • Oostende/Intl (EBOS)

    Taf: TAF EBOS 220500Z 2206/2312 17003KT 2000 BR BKN003 TEMPO 2206/2211 0400 FG BKN001 BECMG 2212/2214 3500 SCT003 BKN006 TEMPO 2215/2218 SCT007 BKN012 BECMG 2222/2224 11010KT 6000 NSW SCT012=

    Metar: nil

  • Paris/Orly (LFPO)

    Taf: TAF LFPO 220500Z 2206/2312 VRB02KT 6000 NSC PROB40 TEMPO 2206/2208 4000 BR PROB30 TEMPO 2206/2208 0500 BCFG BKN002 BECMG 2208/2210 08005KT CAVOK=

    Metar: nil

  • Beauvais (LFOB)

    Taf: TAF LFOB 220500Z 2206/2306 VRB02KT 0600 FG VV/// TEMPO 2206/2209 0200 BECMG 2209/2211 3000 BR OVC003 BECMG 2211/2213 CAVOK BECMG 2221/2224 4000 BR BKN020 PROB30 2302/2306 0800 BCFG NSC=

    Metar: nil

  • Münster/Intl (EDDG)

    Taf: TAF EDDG 220500Z 2206/2306 33004KT 4000 BR SCT003 BKN008 TEMPO 2206/2208 2500 -DZ BR BKN003 PROB30 TEMPO 2206/2208 1200 DZ BKN001 BECMG 2208/2211 04006KT 9999 SCT040 BECMG 2215/2218 10004KT=

    Metar: METAR EDDG 220550Z 01003KT 2000 BR BKN003 08/08 Q1033 NOSIG=

  • Illesheim (ETIK)

    Taf: TAF AMD ETIK 220338Z 2203/2304 29009KT 9999 OVC020 QNH3038INS TEMPO 2203/2208 29012G18KT 6000 -SHRA BKN005 BECMG 2210/2211 35006KT 9999 BKN015 QNH3049INS BECMG 2212/2213 04009KT 9999 BKN030 QNH3058INS BECMG 2300/2301 10009KT 9999 FEW020 QNH3064INS TX11/2213Z TN02/2222Z=

    Metar: nil

  • Duebendorf (LSMD)

    Taf: TAF LSMD 220500Z NIL=

    Metar: nil

  • Villacoublay (LFPV)

    Taf: TAF LFPV 220200Z 2203/2303 VRB02KT 4000 BR NSC TEMPO 2203/2208 2000 BR PROB40 TEMPO 2203/2207 0600 BCFG BECMG 2208/2209 9999 NSW=

    Metar: nil

  • Payerne (LSMP)

    Taf: TAF LSMP 220525Z 2206/2312 VRB03KT 9999 SCT060 BECMG 2212/2215 03010KT BECMG 2222/2301 BKN012=

    Metar: nil

  • Amsterdam/Schipol (EHAM)

    Taf: TAF EHAM 220503Z 2206/2312 VRB03KT 4000 BR FEW003 OVC016 PROB30 2206/2209 2500 BKN003 BECMG 2210/2213 09006KT 8000 NSW BKN020 BECMG 2221/2224 6000 NSC BECMG 2307/2310 13010KT CAVOK=

    Metar: METAR EHAM 220555Z 28003KT 4500 BR FEW004 SCT013 OVC015 07/07 Q1033 NOSIG=

  • Emmen (LSME)

    Taf: TAF LSME 220500Z NIL=

    Metar: nil

  • Friedrichshafen (EDNY)

    Taf: TAF EDNY 220500Z 2206/2306 VRB03KT 9999 SCT035 TEMPO 2206/2212 3500 -RADZ BKN014 PROB30 TEMPO 2212/2216 4000 SHRA BKN012CB BECMG 2212/2214 04006KT=

    Metar: nil

  • Alpnach (LSMA)

    Taf: TAF LSMA 220500Z NIL=

    Metar: nil

  • Meiringen (LSMM)

    Taf: TAF LSMM 220500Z NIL=

    Metar: nil

  • Nürnberg (EDDN)

    Taf: TAF EDDN 220500Z 2206/2306 32006KT 9999 BKN020 TEMPO 2206/2208 2500 -RADZ BKN008 PROB30 TEMPO 2208/2214 4000 SHRA BKN008 BKN012CB BECMG 2214/2216 02004KT=

    Metar: METAR EDDN 220550Z 30007KT 7000 BKN020 08/06 Q1030 TEMPO BKN014=

  • Rouen (LFOP)

    Taf: TAF LFOP 220500Z 2206/2306 VRB02KT 0600 FG NSC TEMPO 2206/2209 0200 VV/// BECMG 2209/2211 8000 NSW NSC BECMG 2221/2224 1200 BCFG PROB30 2300/2306 0300 FG=

    Metar: nil

  • Evreux (LFOE)

    Taf: TAF AMD LFOE 220517Z 2205/2303 VRB01KT 0200 FZFG VV/// FM220830 VRB01KT 0200 FG VV/// BECMG 2210/2212 09003KT 2000 BR BKN002 BECMG 2212/2214 CAVOK BECMG 2220/2222 2000 BR PROB40 2300/2303 0800 FG VV///=

    Metar: nil

  • Erfurt/Bindersleben (EDDE)

    Taf: TAF EDDE 220500Z 2206/2306 33009KT 8000 BKN015 BECMG 2206/2209 BKN006 TEMPO 2208/2219 2000 -DZ BR BKN004 PROB30 TEMPO 2208/2218 0500 -DZ FG OVC001 BECMG 2208/2211 05008KT BECMG 2216/2219 BKN015 TEMPO 2219/2224 4000 BR BKN008 BECMG 2220/2223 15004KT=

    Metar: nil